createdAt,value
2022-09-24T00:02:05.404Z,97778.59
2022-09-24T00:04:33.766Z,97777.25
2022-09-24T00:07:02.048Z,97769.78
2022-09-24T00:09:30.284Z,97761.19
2022-09-24T00:11:58.698Z,97763.13
2022-09-24T00:14:26.909Z,97761.66
2022-09-24T00:16:55.150Z,97759.50
2022-09-24T00:19:23.410Z,97764.97
2022-09-24T00:21:51.661Z,97758.34
2022-09-24T00:24:38.432Z,97764.88
2022-09-24T00:27:06.829Z,97769.63
2022-09-24T00:29:35.950Z,97769.91
2022-09-24T00:32:04.971Z,97766.91
2022-09-24T00:34:33.613Z,97765.53
2022-09-24T00:37:02.100Z,97762.69
2022-09-24T00:39:30.318Z,97757.28
2022-09-24T00:41:58.557Z,97755.09
2022-09-24T00:44:38.807Z,97756.41
2022-09-24T00:47:19.728Z,97756.38
2022-09-24T00:49:48.523Z,97755.97
2022-09-24T00:52:16.951Z,97757.72
2022-09-24T00:54:45.582Z,97759.47
2022-09-24T00:57:13.879Z,97751.94
2022-09-24T00:59:42.387Z,97747.00
2022-09-24T01:02:10.849Z,97747.44
2022-09-24T01:04:39.239Z,97739.66
2022-09-24T01:07:07.519Z,97734.59
2022-09-24T01:09:35.719Z,97740.91
2022-09-24T01:12:35.960Z,97742.38
2022-09-24T01:15:18.500Z,97742.41
2022-09-24T01:18:20.003Z,97744.63
2022-09-24T01:21:11.277Z,97741.72
2022-09-24T01:24:08.377Z,97745.06
2022-09-24T01:26:51.824Z,97745.38
2022-09-24T01:29:49.889Z,97737.75
2022-09-24T01:32:33.563Z,97736.31
2022-09-24T01:35:08.627Z,97733.63
2022-09-24T01:37:38.145Z,97727.63
2022-09-24T01:40:06.808Z,97728.72
2022-09-24T01:42:35.118Z,97737.66
2022-09-24T01:45:03.412Z,97730.00
2022-09-24T01:47:40.009Z,97729.56
2022-09-24T01:50:09.945Z,97736.56
2022-09-24T01:53:00.728Z,97746.34
2022-09-24T01:55:30.619Z,97744.63
2022-09-24T01:58:05.391Z,97738.75
2022-09-24T02:00:33.721Z,97750.25
2022-09-24T02:03:09.059Z,97747.75
2022-09-24T02:05:41.922Z,97741.66
2022-09-24T02:08:11.995Z,97753.75
2022-09-24T02:10:50.399Z,97758.94
2022-09-24T02:13:18.621Z,97754.34
2022-09-24T02:15:49.079Z,97751.72
2022-09-24T02:18:18.077Z,97752.63
2022-09-24T02:20:46.337Z,97753.34
2022-09-24T02:23:15.456Z,97750.88
2022-09-24T02:25:55.878Z,97761.63
2022-09-24T02:28:24.300Z,97758.97
2022-09-24T02:30:55.644Z,97769.81
2022-09-24T02:33:42.437Z,97757.88
2022-09-24T02:36:12.277Z,97762.84
2022-09-24T02:38:40.492Z,97767.94
2022-09-24T02:41:08.877Z,97767.66
2022-09-24T02:43:37.383Z,97767.22
2022-09-24T02:46:05.871Z,97770.28
2022-09-24T02:48:34.150Z,97758.63
2022-09-24T02:51:04.348Z,97762.84
2022-09-24T02:53:33.026Z,97778.44
2022-09-24T02:56:01.730Z,97775.19
2022-09-24T02:58:30.051Z,97782.59
2022-09-24T03:00:58.247Z,97777.56
2022-09-24T03:03:26.596Z,97787.38
2022-09-24T03:05:55.240Z,97781.00
2022-09-24T03:08:24.549Z,97777.84
2022-09-24T03:10:52.848Z,97786.16
2022-09-24T03:13:21.068Z,97790.31
2022-09-24T03:15:49.419Z,97775.34
2022-09-24T03:18:17.709Z,97780.25
2022-09-24T03:20:58.027Z,97779.41
2022-09-24T03:23:26.359Z,97777.66
2022-09-24T03:25:56.782Z,97779.78
2022-09-24T03:28:26.907Z,97788.06
2022-09-24T03:31:01.315Z,97777.75
2022-09-24T03:33:34.568Z,97785.59
2022-09-24T03:36:07.519Z,97793.72
2022-09-24T03:38:35.958Z,97802.22
2022-09-24T03:41:04.616Z,97802.09
2022-09-24T03:43:33.612Z,97806.06
2022-09-24T03:46:02.213Z,97794.63
2022-09-24T03:48:30.582Z,97796.84
2022-09-24T03:50:58.884Z,97803.97
2022-09-24T03:53:27.243Z,97805.34
2022-09-24T03:55:56.638Z,97808.69
2022-09-24T03:58:24.869Z,97816.56
2022-09-24T04:00:54.182Z,97811.63
2022-09-24T04:03:22.769Z,97810.47
2022-09-24T04:05:51.504Z,97812.72
2022-09-24T04:08:20.559Z,97813.81
2022-09-24T04:10:49.102Z,97808.38
2022-09-24T04:13:18.051Z,97817.00
2022-09-24T04:15:46.441Z,97811.06
2022-09-24T04:18:14.726Z,97821.16
2022-09-24T04:20:43.014Z,97820.38
2022-09-24T04:23:11.541Z,97813.34
2022-09-24T04:25:42.753Z,97810.31
2022-09-24T04:28:11.108Z,97823.06
2022-09-24T04:30:39.543Z,97835.03
2022-09-24T04:33:08.092Z,97839.88
2022-09-24T04:35:36.735Z,97827.78
2022-09-24T04:38:05.272Z,97831.59
2022-09-24T04:40:33.946Z,97826.56
2022-09-24T04:43:02.844Z,97837.41
2022-09-24T04:45:31.476Z,97839.78
2022-09-24T04:47:59.858Z,97839.59
2022-09-24T04:50:29.432Z,97836.00
2022-09-24T04:53:01.653Z,97827.41
2022-09-24T04:55:35.865Z,97825.47
2022-09-24T04:58:06.865Z,97831.06
2022-09-24T05:00:37.811Z,97835.72
2022-09-24T05:03:08.719Z,97838.56
2022-09-24T05:05:37.141Z,97845.13
2022-09-24T05:08:06.086Z,97839.22
2022-09-24T05:10:34.760Z,97841.34
2022-09-24T05:13:03.301Z,97842.34
2022-09-24T05:15:31.667Z,97831.94
2022-09-24T05:18:00.253Z,97835.72
2022-09-24T05:20:28.629Z,97838.28
2022-09-24T05:22:57.137Z,97835.03
2022-09-24T05:25:25.611Z,97831.19
2022-09-24T05:27:54.948Z,97835.28
2022-09-24T05:30:24.315Z,97837.50
2022-09-24T05:32:53.235Z,97826.19
2022-09-24T05:35:23.191Z,97824.91
2022-09-24T05:37:53.955Z,97826.59
2022-09-24T05:40:41.077Z,97823.50
2022-09-24T05:43:09.492Z,97820.88
2022-09-24T05:45:37.836Z,97829.69
2022-09-24T05:48:06.202Z,97829.81
2022-09-24T05:50:35.296Z,97831.53
2022-09-24T05:53:04.585Z,97823.47
2022-09-24T05:55:33.012Z,97826.22
2022-09-24T05:58:08.214Z,97828.22
2022-09-24T06:00:37.018Z,97823.50
2022-09-24T06:03:10.016Z,97823.22
2022-09-24T06:05:38.301Z,97824.75
2022-09-24T06:08:08.341Z,97816.66
2022-09-24T06:10:36.853Z,97824.50
2022-09-24T06:13:05.393Z,97821.34
2022-09-24T06:15:35.249Z,97825.53
2022-09-24T06:18:03.637Z,97836.06
2022-09-24T06:20:34.461Z,97840.81
2022-09-24T06:23:02.893Z,97839.44
2022-09-24T06:25:31.946Z,97839.41
2022-09-24T06:28:03.750Z,97847.34
2022-09-24T06:30:39.202Z,97848.38
2022-09-24T06:33:17.452Z,97851.50
2022-09-24T06:35:48.659Z,97844.78
2022-09-24T06:38:17.943Z,97847.38
2022-09-24T06:40:47.402Z,97853.53
2022-09-24T06:43:18.415Z,97844.00
2022-09-24T06:45:46.665Z,97852.53
2022-09-24T06:48:15.475Z,97851.13
2022-09-24T06:50:45.697Z,97851.53
2022-09-24T06:53:14.060Z,97851.53
2022-09-24T06:55:42.571Z,97859.84
2022-09-24T06:58:13.077Z,97850.44
2022-09-24T07:00:42.071Z,97853.44
2022-09-24T07:03:16.955Z,97856.09
2022-09-24T07:05:46.797Z,97863.16
2022-09-24T07:08:15.135Z,97856.66
2022-09-24T07:10:46.893Z,97850.81
2022-09-24T07:13:15.446Z,97857.03
2022-09-24T07:15:44.734Z,97845.09
2022-09-24T07:18:13.354Z,97850.00
2022-09-24T07:20:41.712Z,97853.88
2022-09-24T07:23:10.664Z,97849.72
2022-09-24T07:25:40.146Z,97849.00
2022-09-24T07:28:12.424Z,97842.75
2022-09-24T07:30:41.160Z,97845.53
2022-09-24T07:33:09.702Z,97835.44
2022-09-24T07:35:38.782Z,97836.94
2022-09-24T07:38:08.738Z,97833.50
2022-09-24T07:40:37.133Z,97828.72
2022-09-24T07:43:06.334Z,97827.38
2022-09-24T07:45:34.769Z,97826.84
2022-09-24T07:48:05.076Z,97825.47
2022-09-24T07:50:35.238Z,97825.00
2022-09-24T07:53:03.708Z,97824.41
2022-09-24T07:55:34.305Z,97821.81
2022-09-24T07:58:02.618Z,97816.03
2022-09-24T08:00:31.589Z,97819.91
2022-09-24T08:03:01.486Z,97814.75
2022-09-24T08:05:30.175Z,97826.41
2022-09-24T08:07:58.490Z,97816.63
2022-09-24T08:10:28.667Z,97816.50
2022-09-24T08:13:00.027Z,97814.22
2022-09-24T08:15:28.582Z,97807.13
2022-09-24T08:18:03.831Z,97808.16
2022-09-24T08:20:36.230Z,97813.03
2022-09-24T08:23:05.604Z,97808.53
2022-09-24T08:25:34.042Z,97804.13
2022-09-24T08:28:04.480Z,97804.97
2022-09-24T08:30:34.800Z,97803.47
2022-09-24T08:33:06.892Z,97805.28
2022-09-24T08:35:36.810Z,97804.53
2022-09-24T08:38:05.314Z,97794.09
2022-09-24T08:41:15.018Z,97800.75
2022-09-24T08:44:01.686Z,97798.03
2022-09-24T08:46:59.207Z,97799.94
2022-09-24T08:49:47.306Z,97787.78
2022-09-24T08:52:22.708Z,97790.72
2022-09-24T08:54:51.264Z,97789.97
2022-09-24T08:57:19.553Z,97783.31
2022-09-24T08:59:52.612Z,97788.69
2022-09-24T09:02:33.232Z,97783.28
2022-09-24T09:05:38.790Z,97776.63
2022-09-24T09:08:42.163Z,97790.16
2022-09-24T09:11:04.013Z,97776.84
2022-09-24T09:13:41.245Z,97775.44
2022-09-24T09:16:48.055Z,97769.75
2022-09-24T09:19:16.928Z,97763.72
2022-09-24T09:21:52.824Z,97764.09
2022-09-24T09:24:44.145Z,97756.97
2022-09-24T09:27:17.171Z,97764.03
2022-09-24T09:29:51.439Z,97765.34
2022-09-24T09:32:27.623Z,97755.59
2022-09-24T09:34:59.306Z,97761.72
2022-09-24T09:37:37.992Z,97767.94
2022-09-24T09:40:34.544Z,97763.31
2022-09-24T09:43:05.108Z,97762.50
2022-09-24T09:45:54.067Z,97762.59
2022-09-24T09:48:24.165Z,97755.59
2022-09-24T09:50:54.079Z,97754.09
2022-09-24T09:53:33.228Z,97752.06
2022-09-24T09:56:04.072Z,97742.03
2022-09-24T09:58:42.086Z,97731.97
2022-09-24T10:01:13.378Z,97727.47
2022-09-24T10:03:45.264Z,97723.72
2022-09-24T10:06:15.667Z,97724.25
2022-09-24T10:08:43.963Z,97727.59
2022-09-24T10:11:15.319Z,97718.06
2022-09-24T10:13:43.662Z,97711.66
2022-09-24T10:16:13.796Z,97703.09
2022-09-24T10:18:50.681Z,97695.22
2022-09-24T10:21:45.443Z,97693.66
2022-09-24T10:24:20.250Z,97686.50
2022-09-24T10:26:48.833Z,97681.13
2022-09-24T10:29:39.748Z,97676.44
2022-09-24T10:32:24.034Z,97682.22
2022-09-24T10:35:02.752Z,97675.91
2022-09-24T10:37:31.315Z,97674.31
2022-09-24T10:40:00.784Z,97675.94
2022-09-24T10:42:30.338Z,97672.00
2022-09-24T10:45:01.684Z,97678.47
2022-09-24T10:47:48.394Z,97681.19
2022-09-24T10:51:01.935Z,97666.50
2022-09-24T10:53:59.528Z,97673.97
2022-09-24T10:56:38.190Z,97673.03
2022-09-24T10:59:42.771Z,97667.63
2022-09-24T11:02:11.113Z,97671.94
2022-09-24T11:04:52.064Z,97672.41
2022-09-24T11:07:49.337Z,97672.97
2022-09-24T11:10:30.704Z,97664.41
2022-09-24T11:13:16.944Z,97654.19
2022-09-24T11:16:11.093Z,97669.50
2022-09-24T11:19:18.928Z,97664.81
2022-09-24T11:22:05.504Z,97664.38
2022-09-24T11:24:45.949Z,97666.91
2022-09-24T11:27:45.680Z,97667.53
2022-09-24T11:30:25.318Z,97654.88
2022-09-24T11:33:27.859Z,97656.50
2022-09-24T11:36:30.060Z,97653.84
2022-09-24T11:39:04.719Z,97648.50
2022-09-24T11:41:50.799Z,97645.53
2022-09-24T11:44:22.158Z,97656.56
2022-09-24T11:47:00.316Z,97641.50
2022-09-24T11:49:51.149Z,97640.03
2022-09-24T11:52:52.025Z,97637.66
2022-09-24T11:55:32.062Z,97635.19
2022-09-24T11:58:07.982Z,97629.06
2022-09-24T12:00:44.036Z,97627.75
2022-09-24T12:03:20.895Z,97627.53
2022-09-24T12:06:02.308Z,97622.00
2022-09-24T12:08:40.285Z,97618.53
2022-09-24T12:11:41.580Z,97619.25
2022-09-24T12:14:16.508Z,97614.25
2022-09-24T12:16:49.358Z,97619.69
2022-09-24T12:19:24.347Z,97617.88
2022-09-24T12:21:53.436Z,97615.66
2022-09-24T12:24:36.806Z,97615.66
2022-09-24T12:27:20.358Z,97615.91
2022-09-24T12:30:11.828Z,97619.09
2022-09-24T12:32:57.140Z,97620.63
2022-09-24T12:35:29.830Z,97613.38
2022-09-24T12:38:03.627Z,97613.72
2022-09-24T12:40:55.031Z,97615.69
2022-09-24T12:43:48.800Z,97615.97
2022-09-24T12:46:34.740Z,97617.16
2022-09-24T12:49:03.258Z,97615.69
2022-09-24T12:51:38.478Z,97621.56
2022-09-24T12:54:16.500Z,97618.50
2022-09-24T12:56:46.275Z,97603.13
2022-09-24T12:59:27.575Z,97602.81
2022-09-24T13:01:56.191Z,97596.69
2022-09-24T13:04:29.360Z,97587.03
2022-09-24T13:06:57.871Z,97587.78
2022-09-24T13:09:38.459Z,97588.78
2022-09-24T13:12:16.229Z,97583.47
2022-09-24T13:15:05.178Z,97579.69
2022-09-24T13:17:35.620Z,97585.25
2022-09-24T13:20:09.616Z,97582.91
2022-09-24T13:22:38.215Z,97578.66
2022-09-24T13:25:12.184Z,97586.66
2022-09-24T13:27:42.494Z,97584.19
2022-09-24T13:30:39.301Z,97591.81
2022-09-24T13:33:11.033Z,97585.97
2022-09-24T13:35:48.616Z,97578.88
2022-09-24T13:38:24.291Z,97576.59
2022-09-24T13:40:57.583Z,97579.75
2022-09-24T13:43:33.072Z,97571.19
2022-09-24T13:46:01.727Z,97564.06
2022-09-24T13:48:52.586Z,97562.84
2022-09-24T13:51:28.368Z,97563.00
2022-09-24T13:53:59.122Z,97552.59
2022-09-24T13:56:27.720Z,97547.31
2022-09-24T13:59:25.430Z,97554.13
2022-09-24T14:01:54.107Z,97556.06
2022-09-24T14:04:22.771Z,97564.19
2022-09-24T14:06:53.056Z,97562.38
2022-09-24T14:09:27.967Z,97561.34
2022-09-24T14:11:58.869Z,97557.75
2022-09-24T14:14:29.891Z,97546.53
2022-09-24T14:17:15.156Z,97545.81
2022-09-24T14:19:43.820Z,97543.75
2022-09-24T14:22:51.328Z,97551.06
2022-09-24T14:25:40.231Z,97551.25
2022-09-24T14:28:10.803Z,97546.81
2022-09-24T14:30:55.083Z,97551.94
2022-09-24T14:33:26.261Z,97540.75
2022-09-24T14:35:56.286Z,97542.47
2022-09-24T14:38:53.771Z,97543.34
2022-09-24T14:41:43.133Z,97538.59
2022-09-24T14:44:38.215Z,97537.31
2022-09-24T14:47:29.710Z,97535.72
2022-09-24T14:49:59.101Z,97544.06
2022-09-24T14:52:31.414Z,97541.19
2022-09-24T14:55:17.949Z,97537.47
2022-09-24T14:57:49.580Z,97534.47
2022-09-24T15:00:23.249Z,97539.59
2022-09-24T15:02:57.178Z,97546.44
2022-09-24T15:05:27.714Z,97547.56
2022-09-24T15:08:24.358Z,97545.22
2022-09-24T15:10:57.279Z,97547.88
2022-09-24T15:13:27.794Z,97546.44
2022-09-24T15:16:18.167Z,97551.63
2022-09-24T15:18:56.244Z,97551.91
2022-09-24T15:21:24.871Z,97560.94
2022-09-24T15:23:53.390Z,97563.63
2022-09-24T15:26:22.696Z,97554.88
2022-09-24T15:28:51.303Z,97552.03
2022-09-24T15:31:19.611Z,97555.91
2022-09-24T15:33:48.433Z,97549.94
2022-09-24T15:36:21.098Z,97548.59
2022-09-24T15:38:53.085Z,97545.72
2022-09-24T15:41:23.072Z,97548.47
2022-09-24T15:43:56.603Z,97544.66
2022-09-24T15:46:26.289Z,97553.66
2022-09-24T15:48:56.197Z,97557.31
2022-09-24T15:51:24.650Z,97556.00
2022-09-24T15:53:53.196Z,97552.09
2022-09-24T15:56:22.299Z,97562.53
2022-09-24T15:58:52.798Z,97558.38
2022-09-24T16:01:23.728Z,97565.97
2022-09-24T16:03:53.866Z,97561.19
2022-09-24T16:06:24.355Z,97563.84
2022-09-24T16:08:52.859Z,97564.34
2022-09-24T16:11:22.432Z,97558.34
2022-09-24T16:13:51.598Z,97562.47
2022-09-24T16:16:20.033Z,97564.81
2022-09-24T16:18:49.727Z,97562.69
2022-09-24T16:21:18.045Z,97566.59
2022-09-24T16:23:46.459Z,97557.03
2022-09-24T16:26:14.841Z,97568.69
2022-09-24T16:28:43.327Z,97574.84
2022-09-24T16:31:11.811Z,97572.25
2022-09-24T16:33:40.470Z,97575.47
2022-09-24T16:36:09.324Z,97576.50
2022-09-24T16:38:39.777Z,97585.63
2022-09-24T16:41:08.557Z,97587.28
2022-09-24T16:43:37.826Z,97585.50
2022-09-24T16:46:08.430Z,97595.69
2022-09-24T16:48:38.897Z,97595.53
2022-09-24T16:51:10.326Z,97593.41
2022-09-24T16:53:38.790Z,97607.53
2022-09-24T16:56:13.363Z,97616.19
2022-09-24T16:58:42.461Z,97613.97
2022-09-24T17:01:12.266Z,97614.25
2022-09-24T17:03:42.193Z,97615.19
2022-09-24T17:06:21.280Z,97613.69
2022-09-24T17:09:08.746Z,97618.44
2022-09-24T17:11:42.730Z,97610.09
2022-09-24T17:14:31.107Z,97612.00
2022-09-24T17:17:10.548Z,97614.94
2022-09-24T17:19:45.587Z,97625.66
2022-09-24T17:22:15.645Z,97634.22
2022-09-24T17:24:44.257Z,97627.59
2022-09-24T17:27:12.794Z,97630.78
2022-09-24T17:29:43.029Z,97642.22
2022-09-24T17:32:12.322Z,97650.88
2022-09-24T17:34:45.568Z,97645.03
2022-09-24T17:37:15.140Z,97653.84
2022-09-24T17:39:44.393Z,97648.03
2022-09-24T17:42:12.928Z,97650.44
2022-09-24T17:44:42.973Z,97657.22
2022-09-24T17:47:11.321Z,97655.34
2022-09-24T17:49:40.838Z,97658.97
2022-09-24T17:52:11.903Z,97658.00
2022-09-24T17:54:43.764Z,97667.13
2022-09-24T17:57:12.266Z,97672.22
2022-09-24T17:59:42.942Z,97667.13
2022-09-24T18:02:27.277Z,97668.88
2022-09-24T18:04:57.243Z,97670.56
2022-09-24T18:07:25.868Z,97674.19
2022-09-24T18:09:56.305Z,97669.47
2022-09-24T18:12:28.179Z,97672.41
2022-09-24T18:15:00.491Z,97672.94
2022-09-24T18:17:32.214Z,97679.53
2022-09-24T18:20:02.911Z,97680.63
2022-09-24T18:22:35.700Z,97673.84
2022-09-24T18:25:08.696Z,97676.31
2022-09-24T18:27:50.813Z,97684.22
2022-09-24T18:30:24.880Z,97686.41
2022-09-24T18:33:04.907Z,97689.81
2022-09-24T18:35:37.652Z,97690.34
2022-09-24T18:38:13.462Z,97689.81
2022-09-24T18:40:52.513Z,97693.94
2022-09-24T18:43:57.175Z,97696.66
2022-09-24T18:46:44.069Z,97683.88
2022-09-24T18:49:22.712Z,97691.09
2022-09-24T18:51:52.431Z,97697.84
2022-09-24T18:54:24.450Z,97708.69
2022-09-24T18:56:54.094Z,97694.94
2022-09-24T18:59:32.300Z,97697.22
2022-09-24T19:02:05.661Z,97699.34
2022-09-24T19:04:40.007Z,97697.22
2022-09-24T19:07:15.085Z,97702.03
2022-09-24T19:09:47.241Z,97700.28
2022-09-24T19:12:21.644Z,97704.59
2022-09-24T19:14:59.688Z,97709.44
2022-09-24T19:17:41.228Z,97695.69
2022-09-24T19:20:39.036Z,97696.28
2022-09-24T19:23:11.027Z,97698.22
2022-09-24T19:25:44.110Z,97699.34
2022-09-24T19:28:39.148Z,97695.13
2022-09-24T19:31:17.026Z,97690.66
2022-09-24T19:33:47.238Z,97703.97
2022-09-24T19:36:19.548Z,97694.00
2022-09-24T19:38:54.508Z,97699.22
2022-09-24T19:41:26.899Z,97698.84
2022-09-24T19:44:07.490Z,97700.47
2022-09-24T19:49:25.782Z,97698.03
2022-09-24T19:52:00.669Z,97696.72
2022-09-24T19:54:34.515Z,97700.47
2022-09-24T19:57:10.848Z,97706.25
2022-09-24T19:59:45.675Z,97703.78
2022-09-24T20:02:21.506Z,97705.41
2022-09-24T20:04:51.125Z,97703.38
2022-09-24T20:07:23.091Z,97703.00
2022-09-24T20:10:12.493Z,97708.28
2022-09-24T20:12:48.074Z,97703.91
2022-09-24T20:15:28.113Z,97701.53
2022-09-24T20:18:00.098Z,97702.84
2022-09-24T20:20:31.804Z,97703.84
2022-09-24T20:23:02.643Z,97709.28
2022-09-24T20:26:08.181Z,97710.75
2022-09-24T20:28:41.327Z,97710.56
2022-09-24T20:31:11.327Z,97704.97
2022-09-24T20:33:43.481Z,97711.16
2022-09-24T20:36:17.250Z,97713.03
2022-09-24T20:38:51.348Z,97699.63
2022-09-24T20:41:26.714Z,97707.88
2022-09-24T20:43:56.067Z,97711.41
2022-09-24T20:46:28.833Z,97711.75
2022-09-24T20:49:03.307Z,97718.97
2022-09-24T20:51:39.802Z,97709.97
2022-09-24T20:54:08.310Z,97713.44
2022-09-24T20:56:36.689Z,97709.44
2022-09-24T20:59:05.134Z,97712.56
2022-09-24T21:01:33.738Z,97719.13
2022-09-24T21:04:02.855Z,97722.50
2022-09-24T21:06:31.238Z,97718.34
2022-09-24T21:09:00.826Z,97707.78
2022-09-24T21:11:30.200Z,97714.09
2022-09-24T21:14:03.271Z,97712.25
2022-09-24T21:16:33.068Z,97720.50
2022-09-24T21:19:01.519Z,97723.22
2022-09-24T21:21:31.369Z,97728.75
2022-09-24T21:24:00.690Z,97729.50
2022-09-24T21:26:29.726Z,97737.41
2022-09-24T21:29:11.646Z,97733.19
2022-09-24T21:31:40.414Z,97742.03
2022-09-24T21:34:08.971Z,97736.94
2022-09-24T21:36:44.074Z,97741.06
2022-09-24T21:39:17.243Z,97729.34
2022-09-24T21:41:46.197Z,97734.66
2022-09-24T21:44:14.680Z,97732.09
2022-09-24T21:46:44.107Z,97729.00
2022-09-24T21:49:12.440Z,97725.69
2022-09-24T21:51:42.711Z,97722.00
2022-09-24T21:54:16.551Z,97723.84
2022-09-24T21:56:45.286Z,97717.34
2022-09-24T21:59:32.907Z,97707.72
2022-09-24T22:02:01.952Z,97703.72
2022-09-24T22:04:32.646Z,97709.72
2022-09-24T22:07:01.044Z,97717.34
2022-09-24T22:09:30.260Z,97712.50
2022-09-24T22:12:00.271Z,97718.34
2022-09-24T22:14:28.646Z,97714.78
2022-09-24T22:16:57.080Z,97710.13
2022-09-24T22:19:25.398Z,97712.59
2022-09-24T22:21:53.826Z,97714.56
2022-09-24T22:24:22.526Z,97705.78
2022-09-24T22:26:50.959Z,97701.91
2022-09-24T22:29:19.609Z,97701.59
2022-09-24T22:31:48.520Z,97704.84
2022-09-24T22:34:35.546Z,97689.66
2022-09-24T22:37:07.204Z,97701.13
2022-09-24T22:39:36.253Z,97697.75
2022-09-24T22:42:05.326Z,97699.28
2022-09-24T22:44:33.841Z,97702.69
2022-09-24T22:47:02.345Z,97703.69
2022-09-24T22:49:32.029Z,97701.50
2022-09-24T22:52:00.534Z,97701.47
2022-09-24T22:54:28.946Z,97699.13
2022-09-24T22:56:57.181Z,97704.47
2022-09-24T22:59:25.574Z,97693.22
2022-09-24T23:01:53.863Z,97693.81
2022-09-24T23:04:23.020Z,97696.16
2022-09-24T23:06:51.297Z,97694.19
2022-09-24T23:09:20.870Z,97689.59
2022-09-24T23:11:49.144Z,97699.13
2022-09-24T23:14:17.420Z,97688.41
2022-09-24T23:16:47.078Z,97687.00
2022-09-24T23:19:19.384Z,97689.94
2022-09-24T23:21:47.795Z,97687.63
2022-09-24T23:24:17.899Z,97689.72
2022-09-24T23:26:46.506Z,97697.09
2022-09-24T23:29:14.956Z,97694.88
2022-09-24T23:31:43.414Z,97690.13
2022-09-24T23:34:12.636Z,97692.19
2022-09-24T23:36:40.941Z,97683.25
2022-09-24T23:39:09.312Z,97689.66
2022-09-24T23:41:37.798Z,97682.91
2022-09-24T23:44:06.514Z,97687.47
2022-09-24T23:46:34.866Z,97681.50
2022-09-24T23:49:03.440Z,97676.94
2022-09-24T23:51:31.731Z,97686.06
2022-09-24T23:54:00.312Z,97687.66
2022-09-24T23:56:28.680Z,97676.19
2022-09-24T23:58:57.932Z,97680.94
